sensor_id;sensor_type;location;lat;lon;timestamp;temperature;humidity
18974;DHT22;9621;48.690;9.466;2022-10-03T00:02:49;9.20;99.90
18974;DHT22;9621;48.690;9.466;2022-10-03T00:05:28;9.20;99.90
18974;DHT22;9621;48.690;9.466;2022-10-03T00:08:06;9.30;99.90
18974;DHT22;9621;48.690;9.466;2022-10-03T00:10:44;9.30;99.90
18974;DHT22;9621;48.690;9.466;2022-10-03T00:13:21;9.20;99.90
18974;DHT22;9621;48.690;9.466;2022-10-03T00:16:00;9.30;99.90
18974;DHT22;9621;48.690;9.466;2022-10-03T00:18:36;9.20;99.90
18974;DHT22;9621;48.690;9.466;2022-10-03T00:21:16;9.20;99.90
18974;DHT22;9621;48.690;9.466;2022-10-03T00:23:49;9.20;99.90
18974;DHT22;9621;48.690;9.466;2022-10-03T00:26:32;9.50;99.90
18974;DHT22;9621;48.690;9.466;2022-10-03T00:29:24;9.20;99.90
18974;DHT22;9621;48.690;9.466;2022-10-03T00:32:05;9.20;99.90
18974;DHT22;9621;48.690;9.466;2022-10-03T00:38:03;9.20;99.90
18974;DHT22;9621;48.690;9.466;2022-10-03T00:40:56;9.30;99.90
18974;DHT22;9621;48.690;9.466;2022-10-03T00:49:57;9.40;99.90
18974;DHT22;9621;48.690;9.466;2022-10-03T00:52:54;9.40;99.90
18974;DHT22;9621;48.690;9.466;2022-10-03T00:55:33;9.50;99.90
18974;DHT22;9621;48.690;9.466;2022-10-03T00:58:16;9.50;99.90
18974;DHT22;9621;48.690;9.466;2022-10-03T01:00:50;9.40;99.90
18974;DHT22;9621;48.690;9.466;2022-10-03T01:03:36;9.40;99.90
18974;DHT22;9621;48.690;9.466;2022-10-03T01:06:16;9.40;99.90
18974;DHT22;9621;48.690;9.466;2022-10-03T01:09:01;9.40;99.90
18974;DHT22;9621;48.690;9.466;2022-10-03T01:12:02;8.10;99.90
18974;DHT22;9621;48.690;9.466;2022-10-03T01:14:57;9.40;99.90
18974;DHT22;9621;48.690;9.466;2022-10-03T01:17:35;9.50;99.90
18974;DHT22;9621;48.690;9.466;2022-10-03T01:20:21;9.70;99.90
18974;DHT22;9621;48.690;9.466;2022-10-03T01:26:03;9.50;99.90
18974;DHT22;9621;48.690;9.466;2022-10-03T01:28:40;9.60;99.90
18974;DHT22;9621;48.690;9.466;2022-10-03T01:31:32;9.60;99.90
18974;DHT22;9621;48.690;9.466;2022-10-03T01:34:05;9.80;99.90
18974;DHT22;9621;48.690;9.466;2022-10-03T01:36:39;9.60;99.90
18974;DHT22;9621;48.690;9.466;2022-10-03T01:39:14;9.60;99.90
18974;DHT22;9621;48.690;9.466;2022-10-03T01:41:50;9.70;99.90
18974;DHT22;9621;48.690;9.466;2022-10-03T01:44:21;9.80;99.90
18974;DHT22;9621;48.690;9.466;2022-10-03T01:46:54;9.70;99.90
18974;DHT22;9621;48.690;9.466;2022-10-03T01:49:27;9.70;99.90
18974;DHT22;9621;48.690;9.466;2022-10-03T01:51:59;10.10;99.90
18974;DHT22;9621;48.690;9.466;2022-10-03T01:54:34;9.90;99.90
18974;DHT22;9621;48.690;9.466;2022-10-03T01:57:11;9.80;99.90
18974;DHT22;9621;48.690;9.466;2022-10-03T01:59:47;10.10;99.90
18974;DHT22;9621;48.690;9.466;2022-10-03T02:02:26;10.30;99.90
18974;DHT22;9621;48.690;9.466;2022-10-03T02:05:02;9.90;99.90
18974;DHT22;9621;48.690;9.466;2022-10-03T02:07:41;9.90;99.90
18974;DHT22;9621;48.690;9.466;2022-10-03T02:10:19;9.80;99.90
18974;DHT22;9621;48.690;9.466;2022-10-03T02:12:57;9.90;99.90
18974;DHT22;9621;48.690;9.466;2022-10-03T02:15:31;9.80;99.90
18974;DHT22;9621;48.690;9.466;2022-10-03T02:18:10;9.80;99.90
18974;DHT22;9621;48.690;9.466;2022-10-03T02:20:44;9.90;99.90
18974;DHT22;9621;48.690;9.466;2022-10-03T02:23:25;9.80;99.90
18974;DHT22;9621;48.690;9.466;2022-10-03T02:38:45;9.80;99.90
18974;DHT22;9621;48.690;9.466;2022-10-03T02:48:05;9.80;99.90
18974;DHT22;9621;48.690;9.466;2022-10-03T02:57:25;9.90;99.90
18974;DHT22;9621;48.690;9.466;2022-10-03T03:00:04;10.00;99.90
18974;DHT22;9621;48.690;9.466;2022-10-03T03:06:01;10.10;99.90
18974;DHT22;9621;48.690;9.466;2022-10-03T03:09:02;9.90;99.90
18974;DHT22;9621;48.690;9.466;2022-10-03T03:11:43;10.00;99.90
18974;DHT22;9621;48.690;9.466;2022-10-03T03:14:40;10.00;99.90
18974;DHT22;9621;48.690;9.466;2022-10-03T03:17:26;10.00;99.90
18974;DHT22;9621;48.690;9.466;2022-10-03T03:20:20;9.90;99.90
18974;DHT22;9621;48.690;9.466;2022-10-03T03:28:37;10.10;99.90
18974;DHT22;9621;48.690;9.466;2022-10-03T03:31:11;10.60;99.90
18974;DHT22;9621;48.690;9.466;2022-10-03T03:33:49;10.00;99.90
18974;DHT22;9621;48.690;9.466;2022-10-03T03:36:27;10.20;99.90
18974;DHT22;9621;48.690;9.466;2022-10-03T03:39:07;9.90;99.90
18974;DHT22;9621;48.690;9.466;2022-10-03T03:42:01;9.90;99.90
18974;DHT22;9621;48.690;9.466;2022-10-03T03:45:07;9.80;99.90
18974;DHT22;9621;48.690;9.466;2022-10-03T03:48:02;9.80;99.90
18974;DHT22;9621;48.690;9.466;2022-10-03T03:50:45;9.90;99.90
18974;DHT22;9621;48.690;9.466;2022-10-03T03:53:25;9.80;99.90
18974;DHT22;9621;48.690;9.466;2022-10-03T03:56:11;9.60;99.90
18974;DHT22;9621;48.690;9.466;2022-10-03T03:58:45;9.60;99.90
18974;DHT22;9621;48.690;9.466;2022-10-03T04:01:34;9.70;99.90
18974;DHT22;9621;48.690;9.466;2022-10-03T04:04:12;9.60;99.90
18974;DHT22;9621;48.690;9.466;2022-10-03T04:06:54;9.80;99.90
18974;DHT22;9621;48.690;9.466;2022-10-03T04:12:41;9.70;99.90
18974;DHT22;9621;48.690;9.466;2022-10-03T04:15:24;9.70;99.90
18974;DHT22;9621;48.690;9.466;2022-10-03T04:18:10;9.70;99.90
18974;DHT22;9621;48.690;9.466;2022-10-03T04:21:19;9.70;99.90
18974;DHT22;9621;48.690;9.466;2022-10-03T04:24:00;9.80;99.90
18974;DHT22;9621;48.690;9.466;2022-10-03T04:26:42;9.80;99.90
18974;DHT22;9621;48.690;9.466;2022-10-03T04:29:43;9.80;99.90
18974;DHT22;9621;48.690;9.466;2022-10-03T04:32:27;10.00;99.90
18974;DHT22;9621;48.690;9.466;2022-10-03T04:35:21;9.80;99.90
18974;DHT22;9621;48.690;9.466;2022-10-03T04:37:57;9.90;99.90
18974;DHT22;9621;48.690;9.466;2022-10-03T04:40:32;9.80;99.90
18974;DHT22;9621;48.690;9.466;2022-10-03T04:43:11;9.80;99.90
18974;DHT22;9621;48.690;9.466;2022-10-03T04:45:56;9.90;99.90
18974;DHT22;9621;48.690;9.466;2022-10-03T04:48:32;9.80;99.90
18974;DHT22;9621;48.690;9.466;2022-10-03T04:51:11;9.80;99.90
18974;DHT22;9621;48.690;9.466;2022-10-03T04:53:50;9.90;99.90
18974;DHT22;9621;48.690;9.466;2022-10-03T04:56:41;9.90;99.90
18974;DHT22;9621;48.690;9.466;2022-10-03T04:59:27;9.90;99.90
18974;DHT22;9621;48.690;9.466;2022-10-03T05:02:02;9.90;99.90
18974;DHT22;9621;48.690;9.466;2022-10-03T05:04:37;9.90;99.90
18974;DHT22;9621;48.690;9.466;2022-10-03T05:07:15;9.90;99.90
18974;DHT22;9621;48.690;9.466;2022-10-03T05:09:49;10.00;99.90
18974;DHT22;9621;48.690;9.466;2022-10-03T05:12:24;10.30;99.90
18974;DHT22;9621;48.690;9.466;2022-10-03T05:15:06;9.90;99.90
18974;DHT22;9621;48.690;9.466;2022-10-03T05:17:45;9.90;99.90
18974;DHT22;9621;48.690;9.466;2022-10-03T05:20:24;9.90;99.90
18974;DHT22;9621;48.690;9.466;2022-10-03T05:23:01;9.70;99.90
18974;DHT22;9621;48.690;9.466;2022-10-03T05:25:41;10.00;99.90
18974;DHT22;9621;48.690;9.466;2022-10-03T05:28:19;9.90;99.90
18974;DHT22;9621;48.690;9.466;2022-10-03T05:30:56;10.30;99.90
18974;DHT22;9621;48.690;9.466;2022-10-03T05:33:33;10.00;99.90
18974;DHT22;9621;48.690;9.466;2022-10-03T06:11:01;9.90;99.90
18974;DHT22;9621;48.690;9.466;2022-10-03T06:13:54;9.90;99.90
18974;DHT22;9621;48.690;9.466;2022-10-03T06:16:35;9.90;99.90
18974;DHT22;9621;48.690;9.466;2022-10-03T06:19:12;10.00;99.90
18974;DHT22;9621;48.690;9.466;2022-10-03T06:34:29;10.00;99.90
18974;DHT22;9621;48.690;9.466;2022-10-03T06:46:57;10.00;99.90
18974;DHT22;9621;48.690;9.466;2022-10-03T06:53:23;10.10;99.90
18974;DHT22;9621;48.690;9.466;2022-10-03T07:02:42;10.30;99.90
18974;DHT22;9621;48.690;9.466;2022-10-03T07:05:53;10.50;99.90
18974;DHT22;9621;48.690;9.466;2022-10-03T07:20:54;11.10;99.90
18974;DHT22;9621;48.690;9.466;2022-10-03T07:23:48;11.10;99.90
18974;DHT22;9621;48.690;9.466;2022-10-03T07:26:38;11.10;99.90
18974;DHT22;9621;48.690;9.466;2022-10-03T07:29:32;11.20;99.90
18974;DHT22;9621;48.690;9.466;2022-10-03T07:32:22;11.20;99.90
18974;DHT22;9621;48.690;9.466;2022-10-03T07:41:37;11.40;99.90
18974;DHT22;9621;48.690;9.466;2022-10-03T07:47:38;11.30;99.90
18974;DHT22;9621;48.690;9.466;2022-10-03T07:56:13;11.30;99.90
18974;DHT22;9621;48.690;9.466;2022-10-03T07:59:30;11.30;99.90
18974;DHT22;9621;48.690;9.466;2022-10-03T08:02:22;11.40;99.90
18974;DHT22;9621;48.690;9.466;2022-10-03T08:08:11;11.80;99.90
18974;DHT22;9621;48.690;9.466;2022-10-03T08:11:08;12.10;99.90
18974;DHT22;9621;48.690;9.466;2022-10-03T08:13:53;12.50;99.90
18974;DHT22;9621;48.690;9.466;2022-10-03T08:16:45;12.90;99.90
18974;DHT22;9621;48.690;9.466;2022-10-03T08:19:27;13.20;99.90
18974;DHT22;9621;48.690;9.466;2022-10-03T08:22:07;13.40;99.90
18974;DHT22;9621;48.690;9.466;2022-10-03T08:25:05;13.40;99.90
18974;DHT22;9621;48.690;9.466;2022-10-03T08:27:48;13.40;99.90
18974;DHT22;9621;48.690;9.466;2022-10-03T08:30:20;13.30;99.90
18974;DHT22;9621;48.690;9.466;2022-10-03T08:36:17;13.10;99.90
18974;DHT22;9621;48.690;9.466;2022-10-03T08:39:24;13.00;99.90
18974;DHT22;9621;48.690;9.466;2022-10-03T08:42:25;12.90;99.90
18974;DHT22;9621;48.690;9.466;2022-10-03T08:48:34;12.70;99.90
18974;DHT22;9621;48.690;9.466;2022-10-03T08:51:42;12.60;99.90
18974;DHT22;9621;48.690;9.466;2022-10-03T08:57:31;12.50;99.90
18974;DHT22;9621;48.690;9.466;2022-10-03T09:00:19;12.40;99.90
18974;DHT22;9621;48.690;9.466;2022-10-03T09:03:17;12.40;99.90
18974;DHT22;9621;48.690;9.466;2022-10-03T09:06:24;12.40;99.90
18974;DHT22;9621;48.690;9.466;2022-10-03T09:09:18;12.40;99.90
18974;DHT22;9621;48.690;9.466;2022-10-03T09:12:33;12.40;99.90
18974;DHT22;9621;48.690;9.466;2022-10-03T09:18:28;12.40;99.90
18974;DHT22;9621;48.690;9.466;2022-10-03T09:21:38;12.60;99.90
18974;DHT22;9621;48.690;9.466;2022-10-03T09:27:32;12.90;99.90
18974;DHT22;9621;48.690;9.466;2022-10-03T09:30:20;13.10;99.90
18974;DHT22;9621;48.690;9.466;2022-10-03T09:33:05;13.50;99.90
18974;DHT22;9621;48.690;9.466;2022-10-03T09:38:52;14.40;99.90
18974;DHT22;9621;48.690;9.466;2022-10-03T09:42:01;14.90;99.90
18974;DHT22;9621;48.690;9.466;2022-10-03T09:48:12;15.60;99.90
18974;DHT22;9621;48.690;9.466;2022-10-03T09:51:14;15.50;99.90
18974;DHT22;9621;48.690;9.466;2022-10-03T10:00:07;15.10;99.90
18974;DHT22;9621;48.690;9.466;2022-10-03T10:03:02;15.00;99.90
18974;DHT22;9621;48.690;9.466;2022-10-03T10:09:11;14.80;99.90
18974;DHT22;9621;48.690;9.466;2022-10-03T10:18:30;14.80;99.90
18974;DHT22;9621;48.690;9.466;2022-10-03T10:24:21;15.20;99.90
18974;DHT22;9621;48.690;9.466;2022-10-03T10:27:15;15.30;99.90
18974;DHT22;9621;48.690;9.466;2022-10-03T10:30:03;15.60;99.90
18974;DHT22;9621;48.690;9.466;2022-10-03T10:45:12;16.20;99.90
18974;DHT22;9621;48.690;9.466;2022-10-03T10:48:21;16.00;99.90
18974;DHT22;9621;48.690;9.466;2022-10-03T10:51:40;15.70;99.90
18974;DHT22;9621;48.690;9.466;2022-10-03T10:54:34;15.50;99.90
18974;DHT22;9621;48.690;9.466;2022-10-03T10:57:15;15.30;99.90
18974;DHT22;9621;48.690;9.466;2022-10-03T11:00:09;15.10;99.90
18974;DHT22;9621;48.690;9.466;2022-10-03T11:03:16;14.90;99.90
18974;DHT22;9621;48.690;9.466;2022-10-03T11:09:24;14.70;99.90
18974;DHT22;9621;48.690;9.466;2022-10-03T11:22:05;16.60;99.90
18974;DHT22;9621;48.690;9.466;2022-10-03T11:25:11;17.10;99.90
18974;DHT22;9621;48.690;9.466;2022-10-03T11:28:15;17.30;99.90
18974;DHT22;9621;48.690;9.466;2022-10-03T11:40:14;16.90;99.90
18974;DHT22;9621;48.690;9.466;2022-10-03T11:42:52;16.70;99.90
18974;DHT22;9621;48.690;9.466;2022-10-03T11:45:26;16.70;99.90
18974;DHT22;9621;48.690;9.466;2022-10-03T11:48:08;16.90;99.90
18974;DHT22;9621;48.690;9.466;2022-10-03T11:50:45;17.30;99.90
18974;DHT22;9621;48.690;9.466;2022-10-03T11:53:35;17.80;99.90
18974;DHT22;9621;48.690;9.466;2022-10-03T11:56:18;18.40;99.90
18974;DHT22;9621;48.690;9.466;2022-10-03T11:58:55;19.00;99.90
18974;DHT22;9621;48.690;9.466;2022-10-03T12:01:28;19.40;99.90
18974;DHT22;9621;48.690;9.466;2022-10-03T12:04:09;19.80;99.90
18974;DHT22;9621;48.690;9.466;2022-10-03T12:06:56;20.00;99.90
18974;DHT22;9621;48.690;9.466;2022-10-03T12:09:54;20.20;99.90
18974;DHT22;9621;48.690;9.466;2022-10-03T12:12:30;20.50;99.90
18974;DHT22;9621;48.690;9.466;2022-10-03T12:15:12;20.70;99.90
18974;DHT22;9621;48.690;9.466;2022-10-03T12:17:46;20.90;99.90
18974;DHT22;9621;48.690;9.466;2022-10-03T12:20:19;20.90;99.90
18974;DHT22;9621;48.690;9.466;2022-10-03T12:22:51;21.00;99.90
18974;DHT22;9621;48.690;9.466;2022-10-03T12:25:26;21.10;99.90
18974;DHT22;9621;48.690;9.466;2022-10-03T12:28:04;20.90;99.10
18974;DHT22;9621;48.690;9.466;2022-10-03T12:30:41;20.40;96.60
18974;DHT22;9621;48.690;9.466;2022-10-03T12:33:25;19.80;96.20
18974;DHT22;9621;48.690;9.466;2022-10-03T12:36:03;19.10;96.10
18974;DHT22;9621;48.690;9.466;2022-10-03T12:38:42;18.40;98.20
18974;DHT22;9621;48.690;9.466;2022-10-03T12:41:23;17.80;99.40
18974;DHT22;9621;48.690;9.466;2022-10-03T12:44:07;17.30;98.20
18974;DHT22;9621;48.690;9.466;2022-10-03T12:46:44;17.00;99.90
18974;DHT22;9621;48.690;9.466;2022-10-03T12:49:17;16.60;99.90
18974;DHT22;9621;48.690;9.466;2022-10-03T12:51:51;16.30;99.90
18974;DHT22;9621;48.690;9.466;2022-10-03T12:54:39;16.00;99.90
18974;DHT22;9621;48.690;9.466;2022-10-03T12:57:38;15.70;99.90
18974;DHT22;9621;48.690;9.466;2022-10-03T13:00:15;15.50;99.90
18974;DHT22;9621;48.690;9.466;2022-10-03T13:05:50;15.30;99.90
18974;DHT22;9621;48.690;9.466;2022-10-03T13:08:37;15.30;99.90
18974;DHT22;9621;48.690;9.466;2022-10-03T13:11:20;15.30;99.90
18974;DHT22;9621;48.690;9.466;2022-10-03T13:14:02;15.50;99.90
18974;DHT22;9621;48.690;9.466;2022-10-03T13:16:32;15.70;99.90
18974;DHT22;9621;48.690;9.466;2022-10-03T13:19:08;16.00;99.90
18974;DHT22;9621;48.690;9.466;2022-10-03T13:21:50;16.40;99.90
18974;DHT22;9621;48.690;9.466;2022-10-03T13:24:28;16.90;99.90
18974;DHT22;9621;48.690;9.466;2022-10-03T13:27:16;17.20;99.90
18974;DHT22;9621;48.690;9.466;2022-10-03T13:29:46;17.60;99.90
18974;DHT22;9621;48.690;9.466;2022-10-03T13:32:27;17.80;99.90
18974;DHT22;9621;48.690;9.466;2022-10-03T13:35:04;17.90;99.90
18974;DHT22;9621;48.690;9.466;2022-10-03T13:40:58;17.90;99.90
18974;DHT22;9621;48.690;9.466;2022-10-03T13:43:29;17.70;99.90
18974;DHT22;9621;48.690;9.466;2022-10-03T13:46:04;17.40;99.90
18974;DHT22;9621;48.690;9.466;2022-10-03T13:48:33;17.20;99.90
18974;DHT22;9621;48.690;9.466;2022-10-03T13:51:05;17.00;99.90
18974;DHT22;9621;48.690;9.466;2022-10-03T13:53:53;16.80;99.90
18974;DHT22;9621;48.690;9.466;2022-10-03T13:56:35;16.70;99.90
18974;DHT22;9621;48.690;9.466;2022-10-03T13:59:08;16.60;99.90
18974;DHT22;9621;48.690;9.466;2022-10-03T14:01:47;16.50;99.90
18974;DHT22;9621;48.690;9.466;2022-10-03T14:07:28;16.10;99.90
18974;DHT22;9621;48.690;9.466;2022-10-03T14:10:11;16.00;99.90
18974;DHT22;9621;48.690;9.466;2022-10-03T14:12:50;15.80;99.90
18974;DHT22;9621;48.690;9.466;2022-10-03T14:15:29;15.60;99.90
18974;DHT22;9621;48.690;9.466;2022-10-03T14:18:06;15.40;99.90
18974;DHT22;9621;48.690;9.466;2022-10-03T14:20:40;15.30;99.90
18974;DHT22;9621;48.690;9.466;2022-10-03T14:23:29;15.20;99.90
18974;DHT22;9621;48.690;9.466;2022-10-03T14:26:04;15.10;99.90
18974;DHT22;9621;48.690;9.466;2022-10-03T14:28:37;15.00;99.90
18974;DHT22;9621;48.690;9.466;2022-10-03T14:31:11;14.90;99.90
18974;DHT22;9621;48.690;9.466;2022-10-03T14:33:45;14.90;99.90
18974;DHT22;9621;48.690;9.466;2022-10-03T14:36:29;14.90;99.90
18974;DHT22;9621;48.690;9.466;2022-10-03T14:39:26;14.90;99.90
18974;DHT22;9621;48.690;9.466;2022-10-03T14:42:29;14.80;99.90
18974;DHT22;9621;48.690;9.466;2022-10-03T14:45:00;14.80;99.90
18974;DHT22;9621;48.690;9.466;2022-10-03T14:47:34;14.70;99.90
18974;DHT22;9621;48.690;9.466;2022-10-03T14:50:04;14.70;99.90
18974;DHT22;9621;48.690;9.466;2022-10-03T14:52:36;14.60;99.90
18974;DHT22;9621;48.690;9.466;2022-10-03T14:55:11;14.60;99.90
18974;DHT22;9621;48.690;9.466;2022-10-03T14:57:43;14.60;99.90
18974;DHT22;9621;48.690;9.466;2022-10-03T15:00:23;14.60;99.90
18974;DHT22;9621;48.690;9.466;2022-10-03T15:02:51;14.60;99.90
18974;DHT22;9621;48.690;9.466;2022-10-03T15:05:31;14.60;99.90
18974;DHT22;9621;48.690;9.466;2022-10-03T15:08:00;14.60;99.90
18974;DHT22;9621;48.690;9.466;2022-10-03T15:10:29;14.60;99.90
18974;DHT22;9621;48.690;9.466;2022-10-03T15:13:01;14.70;99.90
18974;DHT22;9621;48.690;9.466;2022-10-03T15:15:32;14.60;99.90
18974;DHT22;9621;48.690;9.466;2022-10-03T15:18:01;14.60;99.90
18974;DHT22;9621;48.690;9.466;2022-10-03T15:20:35;14.60;99.90
18974;DHT22;9621;48.690;9.466;2022-10-03T15:23:05;14.60;99.90
18974;DHT22;9621;48.690;9.466;2022-10-03T15:25:35;14.50;99.90
18974;DHT22;9621;48.690;9.466;2022-10-03T15:28:05;14.50;99.90
18974;DHT22;9621;48.690;9.466;2022-10-03T15:30:35;14.40;99.90
18974;DHT22;9621;48.690;9.466;2022-10-03T15:33:10;14.30;99.90
18974;DHT22;9621;48.690;9.466;2022-10-03T15:35:41;14.30;99.90
18974;DHT22;9621;48.690;9.466;2022-10-03T15:38:13;14.20;99.90
18974;DHT22;9621;48.690;9.466;2022-10-03T15:40:46;14.20;99.90
18974;DHT22;9621;48.690;9.466;2022-10-03T15:43:27;14.10;99.90
18974;DHT22;9621;48.690;9.466;2022-10-03T15:45:59;14.10;99.90
18974;DHT22;9621;48.690;9.466;2022-10-03T15:48:28;14.10;99.90
18974;DHT22;9621;48.690;9.466;2022-10-03T15:50:57;14.00;99.90
18974;DHT22;9621;48.690;9.466;2022-10-03T15:53:28;14.00;99.90
18974;DHT22;9621;48.690;9.466;2022-10-03T15:56:09;14.00;99.90
18974;DHT22;9621;48.690;9.466;2022-10-03T15:58:38;14.00;99.90
18974;DHT22;9621;48.690;9.466;2022-10-03T16:01:12;14.10;99.90
18974;DHT22;9621;48.690;9.466;2022-10-03T16:03:43;13.90;99.90
18974;DHT22;9621;48.690;9.466;2022-10-03T16:06:18;13.90;99.90
18974;DHT22;9621;48.690;9.466;2022-10-03T16:08:55;13.90;99.90
18974;DHT22;9621;48.690;9.466;2022-10-03T16:11:25;13.90;99.90
18974;DHT22;9621;48.690;9.466;2022-10-03T16:14:11;13.90;99.90
18974;DHT22;9621;48.690;9.466;2022-10-03T16:16:45;13.80;99.90
18974;DHT22;9621;48.690;9.466;2022-10-03T16:19:31;13.70;99.90
18974;DHT22;9621;48.690;9.466;2022-10-03T16:22:23;13.70;99.90
18974;DHT22;9621;48.690;9.466;2022-10-03T16:25:04;13.60;99.90
18974;DHT22;9621;48.690;9.466;2022-10-03T16:27:37;13.50;99.90
18974;DHT22;9621;48.690;9.466;2022-10-03T16:30:19;13.40;99.90
18974;DHT22;9621;48.690;9.466;2022-10-03T16:32:52;13.30;99.90
18974;DHT22;9621;48.690;9.466;2022-10-03T16:35:31;13.20;99.90
18974;DHT22;9621;48.690;9.466;2022-10-03T16:38:02;13.10;99.90
18974;DHT22;9621;48.690;9.466;2022-10-03T16:40:30;13.10;99.90
18974;DHT22;9621;48.690;9.466;2022-10-03T16:42:58;12.90;99.90
18974;DHT22;9621;48.690;9.466;2022-10-03T16:45:36;12.80;99.90
18974;DHT22;9621;48.690;9.466;2022-10-03T16:48:10;12.80;99.90
18974;DHT22;9621;48.690;9.466;2022-10-03T16:50:56;12.60;99.90
18974;DHT22;9621;48.690;9.466;2022-10-03T16:53:28;12.50;99.90
18974;DHT22;9621;48.690;9.466;2022-10-03T16:55:57;12.40;99.90
18974;DHT22;9621;48.690;9.466;2022-10-03T16:58:27;12.20;99.90
18974;DHT22;9621;48.690;9.466;2022-10-03T17:00:59;12.10;99.90
18974;DHT22;9621;48.690;9.466;2022-10-03T17:03:30;11.90;99.90
18974;DHT22;9621;48.690;9.466;2022-10-03T17:21:30;10.70;99.90
18974;DHT22;9621;48.690;9.466;2022-10-03T17:24:04;11.10;99.90
18974;DHT22;9621;48.690;9.466;2022-10-03T17:26:35;10.30;99.90
18974;DHT22;9621;48.690;9.466;2022-10-03T17:29:15;10.30;99.90
18974;DHT22;9621;48.690;9.466;2022-10-03T17:31:53;10.00;99.90
18974;DHT22;9621;48.690;9.466;2022-10-03T17:34:29;9.80;99.90
18974;DHT22;9621;48.690;9.466;2022-10-03T17:37:23;9.70;99.90
18974;DHT22;9621;48.690;9.466;2022-10-03T17:39:55;9.50;99.90
18974;DHT22;9621;48.690;9.466;2022-10-03T17:42:40;9.40;99.90
18974;DHT22;9621;48.690;9.466;2022-10-03T17:45:24;9.10;99.90
18974;DHT22;9621;48.690;9.466;2022-10-03T17:48:03;9.00;99.90
18974;DHT22;9621;48.690;9.466;2022-10-03T17:50:37;8.90;99.90
18974;DHT22;9621;48.690;9.466;2022-10-03T17:53:17;8.70;99.90
18974;DHT22;9621;48.690;9.466;2022-10-03T17:55:49;8.60;99.90
18974;DHT22;9621;48.690;9.466;2022-10-03T17:58:19;8.50;99.90
18974;DHT22;9621;48.690;9.466;2022-10-03T18:03:25;8.30;99.90
18974;DHT22;9621;48.690;9.466;2022-10-03T18:05:57;8.20;99.90
18974;DHT22;9621;48.690;9.466;2022-10-03T18:08:28;8.20;99.90
18974;DHT22;9621;48.690;9.466;2022-10-03T18:10:59;8.10;99.90
18974;DHT22;9621;48.690;9.466;2022-10-03T18:13:32;8.00;99.90
18974;DHT22;9621;48.690;9.466;2022-10-03T18:16:17;8.00;99.90
18974;DHT22;9621;48.690;9.466;2022-10-03T18:21:45;7.80;99.90
18974;DHT22;9621;48.690;9.466;2022-10-03T18:24:34;7.70;99.90
18974;DHT22;9621;48.690;9.466;2022-10-03T18:27:11;7.70;99.90
18974;DHT22;9621;48.690;9.466;2022-10-03T18:29:47;7.60;99.90
18974;DHT22;9621;48.690;9.466;2022-10-03T18:32:18;7.60;99.90
18974;DHT22;9621;48.690;9.466;2022-10-03T18:34:59;7.40;99.90
18974;DHT22;9621;48.690;9.466;2022-10-03T18:40:33;7.40;99.90
18974;DHT22;9621;48.690;9.466;2022-10-03T18:43:03;7.20;99.90
18974;DHT22;9621;48.690;9.466;2022-10-03T18:45:36;7.20;99.90
18974;DHT22;9621;48.690;9.466;2022-10-03T18:48:09;7.10;99.90
18974;DHT22;9621;48.690;9.466;2022-10-03T18:50:47;7.10;99.90
18974;DHT22;9621;48.690;9.466;2022-10-03T18:53:19;6.90;99.90
18974;DHT22;9621;48.690;9.466;2022-10-03T18:55:57;6.90;99.90
18974;DHT22;9621;48.690;9.466;2022-10-03T18:58:27;6.90;99.90
18974;DHT22;9621;48.690;9.466;2022-10-03T19:01:00;6.90;99.90
18974;DHT22;9621;48.690;9.466;2022-10-03T19:03:33;6.80;99.90
18974;DHT22;9621;48.690;9.466;2022-10-03T19:06:04;6.80;99.90
18974;DHT22;9621;48.690;9.466;2022-10-03T19:08:36;6.70;99.90
18974;DHT22;9621;48.690;9.466;2022-10-03T19:11:15;6.70;99.90
18974;DHT22;9621;48.690;9.466;2022-10-03T19:13:53;6.60;99.90
18974;DHT22;9621;48.690;9.466;2022-10-03T19:16:31;6.60;99.90
18974;DHT22;9621;48.690;9.466;2022-10-03T19:19:04;6.60;99.90
18974;DHT22;9621;48.690;9.466;2022-10-03T19:21:36;6.50;99.90
18974;DHT22;9621;48.690;9.466;2022-10-03T19:24:06;6.40;99.90
18974;DHT22;9621;48.690;9.466;2022-10-03T19:26:42;6.40;99.90
18974;DHT22;9621;48.690;9.466;2022-10-03T19:29:13;6.30;99.90
18974;DHT22;9621;48.690;9.466;2022-10-03T19:31:49;6.30;99.90
18974;DHT22;9621;48.690;9.466;2022-10-03T19:34:21;6.30;99.90
18974;DHT22;9621;48.690;9.466;2022-10-03T19:36:49;6.20;99.90
18974;DHT22;9621;48.690;9.466;2022-10-03T19:39:18;6.10;99.90
18974;DHT22;9621;48.690;9.466;2022-10-03T19:41:51;6.10;99.90
18974;DHT22;9621;48.690;9.466;2022-10-03T19:44:21;6.00;99.90
18974;DHT22;9621;48.690;9.466;2022-10-03T19:47:00;6.00;99.90
18974;DHT22;9621;48.690;9.466;2022-10-03T19:49:44;5.90;99.90
18974;DHT22;9621;48.690;9.466;2022-10-03T19:52:24;5.90;99.90
18974;DHT22;9621;48.690;9.466;2022-10-03T19:54:57;5.80;99.90
18974;DHT22;9621;48.690;9.466;2022-10-03T19:57:29;5.90;99.90
18974;DHT22;9621;48.690;9.466;2022-10-03T20:00:00;5.70;99.90
18974;DHT22;9621;48.690;9.466;2022-10-03T20:02:29;5.70;99.90
18974;DHT22;9621;48.690;9.466;2022-10-03T20:04:56;5.70;99.90
18974;DHT22;9621;48.690;9.466;2022-10-03T20:07:38;5.60;99.90
18974;DHT22;9621;48.690;9.466;2022-10-03T20:10:31;5.60;99.90
18974;DHT22;9621;48.690;9.466;2022-10-03T20:13:01;5.50;99.90
18974;DHT22;9621;48.690;9.466;2022-10-03T20:15:36;5.10;99.90
18974;DHT22;9621;48.690;9.466;2022-10-03T20:18:13;5.50;99.90
18974;DHT22;9621;48.690;9.466;2022-10-03T20:20:41;5.40;99.90
18974;DHT22;9621;48.690;9.466;2022-10-03T20:23:13;5.50;99.90
18974;DHT22;9621;48.690;9.466;2022-10-03T20:25:45;5.30;99.90
18974;DHT22;9621;48.690;9.466;2022-10-03T20:28:20;5.30;99.90
18974;DHT22;9621;48.690;9.466;2022-10-03T20:30:50;5.30;99.90
18974;DHT22;9621;48.690;9.466;2022-10-03T20:33:21;5.20;99.90
18974;DHT22;9621;48.690;9.466;2022-10-03T20:35:53;5.20;99.90
18974;DHT22;9621;48.690;9.466;2022-10-03T20:38:27;5.20;99.90
18974;DHT22;9621;48.690;9.466;2022-10-03T20:41:00;5.20;99.90
18974;DHT22;9621;48.690;9.466;2022-10-03T20:43:36;5.10;99.90
18974;DHT22;9621;48.690;9.466;2022-10-03T20:46:21;5.10;99.90
18974;DHT22;9621;48.690;9.466;2022-10-03T20:49:10;5.10;99.90
18974;DHT22;9621;48.690;9.466;2022-10-03T20:51:41;5.00;99.90
18974;DHT22;9621;48.690;9.466;2022-10-03T20:54:12;5.00;99.90
18974;DHT22;9621;48.690;9.466;2022-10-03T20:56:48;5.00;99.90
18974;DHT22;9621;48.690;9.466;2022-10-03T20:59:21;4.90;99.90
18974;DHT22;9621;48.690;9.466;2022-10-03T21:01:57;5.00;99.90
18974;DHT22;9621;48.690;9.466;2022-10-03T21:04:29;4.90;99.90
18974;DHT22;9621;48.690;9.466;2022-10-03T21:07:02;4.80;99.90
18974;DHT22;9621;48.690;9.466;2022-10-03T21:09:40;4.80;99.90
18974;DHT22;9621;48.690;9.466;2022-10-03T21:12:17;4.80;99.90
18974;DHT22;9621;48.690;9.466;2022-10-03T21:14:51;4.70;99.90
18974;DHT22;9621;48.690;9.466;2022-10-03T21:17:20;4.70;99.90
18974;DHT22;9621;48.690;9.466;2022-10-03T21:19:50;4.70;99.90
18974;DHT22;9621;48.690;9.466;2022-10-03T21:22:21;4.70;99.90
18974;DHT22;9621;48.690;9.466;2022-10-03T21:24:54;4.60;99.90
18974;DHT22;9621;48.690;9.466;2022-10-03T21:27:23;4.60;99.90
18974;DHT22;9621;48.690;9.466;2022-10-03T21:30:03;4.60;99.90
18974;DHT22;9621;48.690;9.466;2022-10-03T21:32:55;4.60;99.90
18974;DHT22;9621;48.690;9.466;2022-10-03T21:35:27;4.40;99.90